Social Circle, Georgia
Current Conditions -  °F | °C
As of 2:55 AM on Thursday 27 Nov 2014 (Local Time) from KCVC Reporting Station
Clear Clear  
Wind Chill: 43°   Ceiling: Unl
Heat Index: 46°   Visibility: 10mi
Dew Point: 30°   Wind: 7mph
Humidity: 53%   Direction: 270°W
Pressure: 30.09"   Gusts: NA
Location:  33.66°N, 83.72°W
Report Text: KCVC 270755Z AUTO 27006KT 10SM CLR 08/M01 A3009 RMK AO2
Loading
Personal Weather Stations






























Interactive Weather Map New forecast layout! Learn more

10-Day Weather Forecast

Advertisements
Track Severe Weather on mobile